createdAt,value
2023-02-06T00:02:18.705Z,103850.75
2023-02-06T00:05:21.669Z,103853.41
2023-02-06T00:08:24.622Z,103869.41
2023-02-06T00:11:28.194Z,103880.97
2023-02-06T00:14:31.022Z,103882.72
2023-02-06T00:17:37.668Z,103889.84
2023-02-06T00:20:40.458Z,103883.63
2023-02-06T00:23:44.433Z,103882.75
2023-02-06T00:26:47.238Z,103885.41
2023-02-06T00:29:50.048Z,103888.94
2023-02-06T00:32:54.268Z,103877.41
2023-02-06T00:35:57.103Z,103871.19
2023-02-06T00:39:00.023Z,103869.41
2023-02-06T00:42:02.813Z,103884.50
2023-02-06T00:45:06.562Z,103886.25
2023-02-06T00:48:10.840Z,103885.38
2023-02-06T00:51:13.738Z,103878.28
2023-02-06T00:54:16.596Z,103880.94
2023-02-06T00:57:19.441Z,103867.59
2023-02-06T01:00:22.246Z,103869.41
2023-02-06T01:03:26.596Z,103872.94
2023-02-06T01:06:29.430Z,103879.16
2023-02-06T01:09:32.295Z,103888.03
2023-02-06T01:12:35.747Z,103885.38
2023-02-06T01:15:39.054Z,103884.50
2023-02-06T01:18:43.683Z,103883.63
2023-02-06T01:21:46.551Z,103883.59
2023-02-06T01:24:49.432Z,103879.19
2023-02-06T01:27:52.285Z,103879.19
2023-02-06T01:30:55.183Z,103872.94
2023-02-06T01:34:01.608Z,103861.44
2023-02-06T01:37:04.499Z,103851.66
2023-02-06T01:40:11.031Z,103848.13
2023-02-06T01:43:18.808Z,103849.88
2023-02-06T01:46:22.158Z,103842.78
2023-02-06T01:49:31.332Z,103833.91
2023-02-06T01:52:34.340Z,103825.91
2023-02-06T01:55:41.321Z,103824.16
2023-02-06T01:58:47.523Z,103819.69
2023-02-06T02:01:50.425Z,103817.91
2023-02-06T02:04:55.993Z,103808.16
2023-02-06T02:08:05.195Z,103802.84
2023-02-06T02:11:16.118Z,103801.94
2023-02-06T02:14:19.203Z,103791.28
2023-02-06T02:17:35.903Z,103780.63
2023-02-06T02:21:14.886Z,103777.97
2023-02-06T02:24:26.451Z,103781.50
2023-02-06T02:27:49.298Z,103777.97
2023-02-06T02:31:32.319Z,103772.66
2023-02-06T02:35:03.520Z,103772.66
2023-02-06T02:38:19.815Z,103764.66
2023-02-06T02:41:28.916Z,103769.09
2023-02-06T02:44:39.687Z,103768.19
2023-02-06T02:47:48.600Z,103766.44
2023-02-06T02:50:54.591Z,103761.09
2023-02-06T02:53:58.146Z,103763.78
2023-02-06T02:57:08.918Z,103765.53
2023-02-06T03:00:14.336Z,103769.97
2023-02-06T03:03:22.943Z,103778.88
2023-02-06T03:06:58.517Z,103781.53
2023-02-06T03:10:09.519Z,103777.06
2023-02-06T03:13:22.151Z,103774.41
2023-02-06T03:16:29.788Z,103768.22
2023-02-06T03:19:36.448Z,103758.41
2023-02-06T03:22:43.584Z,103758.41
2023-02-06T03:25:48.939Z,103750.44
2023-02-06T03:28:55.091Z,103750.44
2023-02-06T03:32:02.855Z,103747.78
2023-02-06T03:35:09.300Z,103751.34
2023-02-06T03:38:15.042Z,103751.34
2023-02-06T03:41:20.117Z,103759.34
2023-02-06T03:44:25.830Z,103762.88
2023-02-06T03:47:31.100Z,103767.28
2023-02-06T03:50:36.302Z,103781.50
2023-02-06T03:53:42.475Z,103781.50
2023-02-06T03:56:49.974Z,103776.16
2023-02-06T03:59:52.967Z,103786.84
2023-02-06T04:02:57.877Z,103786.84
2023-02-06T04:06:00.947Z,103785.97
2023-02-06T04:09:05.380Z,103776.19
2023-02-06T04:12:09.071Z,103777.09
2023-02-06T04:15:12.178Z,103771.75
2023-02-06T04:18:15.039Z,103763.75
2023-02-06T04:21:17.927Z,103754.88
2023-02-06T04:24:22.136Z,103749.56
2023-02-06T04:27:25.107Z,103756.66
2023-02-06T04:30:27.975Z,103754.88
2023-02-06T04:33:30.844Z,103761.09
2023-02-06T04:36:33.958Z,103749.56
2023-02-06T04:39:38.303Z,103730.91
2023-02-06T04:42:41.063Z,103725.59
2023-02-06T04:45:43.855Z,103728.25
2023-02-06T04:48:47.060Z,103729.13
2023-02-06T04:51:49.925Z,103740.69
2023-02-06T04:54:54.130Z,103739.78
2023-02-06T04:57:56.946Z,103733.56
2023-02-06T05:00:59.766Z,103732.69
2023-02-06T05:04:02.661Z,103738.88
2023-02-06T05:07:06.408Z,103733.56
2023-02-06T05:10:11.403Z,103731.78
2023-02-06T05:13:14.424Z,103722.03
2023-02-06T05:16:18.155Z,103722.03
2023-02-06T05:19:20.989Z,103718.47
2023-02-06T05:22:23.790Z,103714.03
2023-02-06T05:25:28.259Z,103704.25
2023-02-06T05:28:33.389Z,103706.03
2023-02-06T05:31:36.544Z,103714.91
2023-02-06T05:34:39.504Z,103718.47
2023-02-06T05:37:42.410Z,103710.47
2023-02-06T05:40:46.995Z,103706.03
2023-02-06T05:43:49.843Z,103714.03
2023-02-06T05:46:52.751Z,103718.47
2023-02-06T05:49:55.556Z,103722.03
2023-02-06T05:52:58.350Z,103732.69
2023-02-06T05:56:02.666Z,103739.78
2023-02-06T05:59:05.510Z,103742.47
2023-02-06T06:02:08.348Z,103748.69
2023-02-06T06:05:11.224Z,103750.44
2023-02-06T06:08:15.014Z,103755.75
2023-02-06T06:11:19.211Z,103756.66
2023-02-06T06:14:22.145Z,103756.66
2023-02-06T06:17:25.066Z,103751.34
2023-02-06T06:20:27.964Z,103749.56
2023-02-06T06:23:30.913Z,103762.88
2023-02-06T06:26:35.219Z,103759.31
2023-02-06T06:29:38.387Z,103759.34
2023-02-06T06:32:41.236Z,103762.88
2023-02-06T06:35:44.103Z,103761.09
2023-02-06T06:38:46.973Z,103757.56
2023-02-06T06:41:51.257Z,103754.88
2023-02-06T06:44:54.080Z,103748.66
2023-02-06T06:47:57.393Z,103746.91
2023-02-06T06:51:00.247Z,103748.66
2023-02-06T06:54:03.367Z,103739.78
2023-02-06T06:57:07.964Z,103752.22
2023-02-06T07:00:12.542Z,103750.44
2023-02-06T07:03:15.431Z,103748.69
2023-02-06T07:06:18.732Z,103742.44
2023-02-06T07:09:21.744Z,103738.88
2023-02-06T07:12:26.068Z,103750.44
2023-02-06T07:15:29.230Z,103762.00
2023-02-06T07:18:32.081Z,103763.75
2023-02-06T07:21:36.139Z,103760.22
2023-02-06T07:24:38.942Z,103745.09
2023-02-06T07:27:43.334Z,103754.88
2023-02-06T07:30:46.340Z,103751.34
2023-02-06T07:33:49.351Z,103754.00
2023-02-06T07:36:52.340Z,103762.88
2023-02-06T07:39:55.249Z,103764.66
2023-02-06T07:42:59.898Z,103765.53
2023-02-06T07:46:09.838Z,103761.09
2023-02-06T07:49:14.852Z,103758.44
2023-02-06T07:52:17.768Z,103758.41
2023-02-06T07:55:20.678Z,103753.97
2023-02-06T07:58:25.676Z,103763.75
2023-02-06T08:01:28.726Z,103753.09
2023-02-06T08:04:35.318Z,103756.66
2023-02-06T08:07:38.312Z,103764.63
2023-02-06T08:10:41.260Z,103769.09
2023-02-06T08:13:46.456Z,103769.94
2023-02-06T08:16:50.389Z,103763.78
2023-02-06T08:19:53.318Z,103759.34
2023-02-06T08:22:57.079Z,103768.22
2023-02-06T08:26:03.966Z,103769.09
2023-02-06T08:29:09.102Z,103775.31
2023-02-06T08:32:12.296Z,103779.78
2023-02-06T08:35:15.454Z,103778.88
2023-02-06T08:38:18.325Z,103778.88
2023-02-06T08:41:24.626Z,103780.66
2023-02-06T08:44:29.273Z,103781.53
2023-02-06T08:47:32.263Z,103779.75
2023-02-06T08:50:35.479Z,103777.09
2023-02-06T08:53:39.293Z,103779.75
2023-02-06T08:56:42.452Z,103780.66
2023-02-06T08:59:46.931Z,103780.66
2023-02-06T09:02:49.913Z,103783.31
2023-02-06T09:05:54.063Z,103801.97
2023-02-06T09:08:57.820Z,103800.19
2023-02-06T09:12:03.901Z,103813.50
2023-02-06T09:15:09.635Z,103812.63
2023-02-06T09:18:12.683Z,103822.41
2023-02-06T09:21:17.191Z,103831.28
2023-02-06T09:24:20.144Z,103845.47
2023-02-06T09:27:23.048Z,103843.72
2023-02-06T09:30:27.322Z,103849.03
2023-02-06T09:33:30.504Z,103851.69
2023-02-06T09:36:34.480Z,103853.44
2023-02-06T09:39:37.495Z,103841.00
2023-02-06T09:42:42.737Z,103852.53
2023-02-06T09:45:48.911Z,103854.31
2023-02-06T09:48:52.198Z,103861.44
2023-02-06T09:52:10.788Z,103867.66
2023-02-06T09:55:23.305Z,103868.56
2023-02-06T09:58:43.362Z,103864.16
2023-02-06T10:01:58.921Z,103858.81
2023-02-06T10:05:06.905Z,103855.28
2023-02-06T10:08:18.147Z,103868.59
2023-02-06T10:11:33.768Z,103868.56
2023-02-06T10:14:42.168Z,103881.03
2023-02-06T10:17:52.577Z,103873.00
2023-02-06T10:20:59.421Z,103863.25
2023-02-06T10:24:09.100Z,103873.00
2023-02-06T10:27:14.196Z,103876.56
2023-02-06T10:30:19.499Z,103869.44
2023-02-06T10:33:30.037Z,103865.00
2023-02-06T10:36:49.056Z,103854.34
2023-02-06T10:40:03.540Z,103857.91
2023-02-06T10:43:19.025Z,103857.94
2023-02-06T10:46:38.715Z,103853.47
2023-02-06T10:49:48.921Z,103866.78
2023-02-06T10:52:53.067Z,103857.94
2023-02-06T10:56:00.554Z,103872.13
2023-02-06T10:59:08.350Z,103877.50
2023-02-06T11:02:21.012Z,103892.59
2023-02-06T11:05:27.740Z,103876.59
2023-02-06T11:08:33.866Z,103875.72
2023-02-06T11:11:39.608Z,103890.81
2023-02-06T11:14:42.472Z,103878.34
2023-02-06T11:17:46.353Z,103885.47
2023-02-06T11:20:54.876Z,103877.50
2023-02-06T11:24:10.770Z,103881.91
2023-02-06T11:27:18.192Z,103885.47
2023-02-06T11:30:34.709Z,103890.81
2023-02-06T11:33:46.714Z,103902.38
2023-02-06T11:36:54.668Z,103903.22
2023-02-06T11:40:15.954Z,103912.13
2023-02-06T11:43:22.463Z,103909.47
2023-02-06T11:46:28.278Z,103908.56
2023-02-06T11:49:31.144Z,103897.91
2023-02-06T11:52:35.350Z,103897.91
2023-02-06T11:55:42.565Z,103889.91
2023-02-06T11:58:46.306Z,103892.59
2023-02-06T12:01:49.423Z,103890.81
2023-02-06T12:04:56.052Z,103895.25
2023-02-06T12:08:03.391Z,103880.16
2023-02-06T12:11:12.549Z,103883.69
2023-02-06T12:14:20.124Z,103879.25
2023-02-06T12:17:28.729Z,103869.47
2023-02-06T12:20:34.820Z,103871.25
2023-02-06T12:23:43.793Z,103877.50
2023-02-06T12:26:48.735Z,103873.94
2023-02-06T12:30:08.858Z,103872.16
2023-02-06T12:33:17.116Z,103881.00
2023-02-06T12:36:21.783Z,103876.59
2023-02-06T12:39:26.258Z,103890.81
2023-02-06T12:42:42.526Z,103884.59
2023-02-06T12:45:51.349Z,103879.25
2023-02-06T12:49:03.410Z,103879.25
2023-02-06T12:52:13.465Z,103878.34
2023-02-06T12:55:23.739Z,103874.81
2023-02-06T12:58:30.242Z,103881.03
2023-02-06T13:01:46.598Z,103888.13
2023-02-06T13:04:50.113Z,103882.81
2023-02-06T13:07:55.581Z,103884.56
2023-02-06T13:11:06.943Z,103889.91
2023-02-06T13:14:22.682Z,103885.47
2023-02-06T13:17:27.540Z,103891.69
2023-02-06T13:20:33.086Z,103899.69
2023-02-06T13:23:36.217Z,103884.59
2023-02-06T13:27:15.744Z,103881.91
2023-02-06T13:30:51.233Z,103897.03
2023-02-06T13:33:57.987Z,103903.25
2023-02-06T13:37:21.156Z,103903.25
2023-02-06T13:40:32.241Z,103899.69
2023-02-06T13:43:37.429Z,103895.25
2023-02-06T13:47:19.190Z,103900.56
2023-02-06T13:50:50.721Z,103904.13
2023-02-06T13:54:13.141Z,103915.69
2023-02-06T13:57:26.684Z,103907.66
2023-02-06T14:00:32.446Z,103917.47
2023-02-06T14:03:38.260Z,103908.56
2023-02-06T14:07:04.247Z,103915.69
2023-02-06T14:10:22.986Z,103913.91
2023-02-06T14:13:42.007Z,103915.69
2023-02-06T14:16:54.258Z,103929.91
2023-02-06T14:20:07.444Z,103929.91
2023-02-06T14:23:21.576Z,103940.59
2023-02-06T14:26:35.504Z,103946.78
2023-02-06T14:29:50.272Z,103952.13
2023-02-06T14:33:03.039Z,103954.78
2023-02-06T14:36:20.430Z,103968.13
2023-02-06T14:39:41.655Z,103973.44
2023-02-06T14:42:46.810Z,103974.34
2023-02-06T14:46:08.843Z,103975.25
2023-02-06T14:49:17.260Z,103985.00
2023-02-06T14:52:25.118Z,103985.00
2023-02-06T14:55:33.500Z,103985.00
2023-02-06T14:58:36.627Z,103982.34
2023-02-06T15:01:39.896Z,103993.91
2023-02-06T15:04:47.268Z,103996.59
2023-02-06T15:07:59.255Z,103999.25
2023-02-06T15:11:05.765Z,104009.91
2023-02-06T15:14:22.114Z,104009.91
2023-02-06T15:17:27.278Z,104019.69
2023-02-06T15:20:37.430Z,104020.56
2023-02-06T15:23:59.193Z,104036.56
2023-02-06T15:27:08.781Z,104041.03
2023-02-06T15:30:19.991Z,104019.69
2023-02-06T15:33:27.792Z,104013.47
2023-02-06T15:36:32.490Z,104019.69
2023-02-06T15:39:39.095Z,104017.91
2023-02-06T15:42:43.895Z,104026.81
2023-02-06T15:45:48.515Z,104022.34
2023-02-06T15:48:54.026Z,104019.69
2023-02-06T15:51:58.501Z,104015.25
2023-02-06T15:55:03.561Z,104024.13
2023-02-06T15:58:06.895Z,104027.69
2023-02-06T16:01:17.855Z,104025.91
2023-02-06T16:04:25.076Z,104025.03
2023-02-06T16:07:31.820Z,104030.34
2023-02-06T16:10:38.984Z,104030.34
2023-02-06T16:13:42.492Z,104038.34
2023-02-06T16:16:57.001Z,104017.91
2023-02-06T16:20:02.787Z,104022.34
2023-02-06T16:23:24.203Z,104017.91
2023-02-06T16:26:30.918Z,104022.34
2023-02-06T16:29:34.066Z,104033.91
2023-02-06T16:32:45.677Z,104040.16
2023-02-06T16:35:50.135Z,104047.25
2023-02-06T16:39:03.618Z,104042.81
2023-02-06T16:42:12.478Z,104055.25
2023-02-06T16:45:19.818Z,104067.72
2023-02-06T16:48:22.734Z,104060.56
2023-02-06T16:51:28.896Z,104061.47
2023-02-06T16:54:34.212Z,104061.47
2023-02-06T16:57:41.825Z,104066.81
2023-02-06T17:00:45.124Z,104063.25
2023-02-06T17:03:47.962Z,104057.91
2023-02-06T17:06:52.084Z,104065.03
2023-02-06T17:09:57.155Z,104068.56
2023-02-06T17:13:01.513Z,104071.28
2023-02-06T17:16:04.589Z,104081.91
2023-02-06T17:19:07.446Z,104078.38
2023-02-06T17:22:11.425Z,104074.81
2023-02-06T17:25:14.322Z,104071.25
2023-02-06T17:28:20.366Z,104074.81
2023-02-06T17:31:23.445Z,104081.94
2023-02-06T17:34:27.435Z,104078.38
2023-02-06T17:37:30.303Z,104089.91
2023-02-06T17:40:36.507Z,104098.81
2023-02-06T17:43:41.449Z,104091.72
2023-02-06T17:46:44.949Z,104097.03
2023-02-06T17:49:47.933Z,104092.59
2023-02-06T17:52:52.745Z,104089.06
2023-02-06T17:55:55.702Z,104087.25
2023-02-06T17:59:00.127Z,104084.59
2023-02-06T18:02:03.207Z,104084.59
2023-02-06T18:05:07.203Z,104087.22
2023-02-06T18:08:10.080Z,104091.69
2023-02-06T18:11:14.671Z,104096.13
2023-02-06T18:14:19.132Z,104104.13
2023-02-06T18:17:22.343Z,104094.38
2023-02-06T18:20:25.247Z,104091.69
2023-02-06T18:23:28.753Z,104093.47
2023-02-06T18:26:31.715Z,104089.91
2023-02-06T18:29:49.290Z,104093.47
2023-02-06T18:32:52.851Z,104092.56
2023-02-06T18:35:55.816Z,104097.03
2023-02-06T18:38:58.879Z,104089.91
2023-02-06T18:42:19.623Z,104089.03
2023-02-06T18:45:31.182Z,104103.22
2023-02-06T18:48:34.094Z,104097.03
2023-02-06T18:51:36.942Z,104099.69
2023-02-06T18:54:40.069Z,104102.34
2023-02-06T18:57:43.037Z,104105.00
2023-02-06T19:00:47.288Z,104105.00
2023-02-06T19:03:52.083Z,104097.03
2023-02-06T19:06:55.077Z,104111.25
2023-02-06T19:09:59.106Z,104113.91
2023-02-06T19:13:01.962Z,104112.13
2023-02-06T19:16:08.745Z,104117.47
2023-02-06T19:19:12.892Z,104119.25
2023-02-06T19:22:15.723Z,104128.13
2023-02-06T19:25:19.232Z,104137.03
2023-02-06T19:28:22.218Z,104139.72
2023-02-06T19:31:26.638Z,104139.72
2023-02-06T19:34:29.519Z,104146.81
2023-02-06T19:37:35.146Z,104159.25
2023-02-06T19:40:39.117Z,104148.56
2023-02-06T19:43:43.024Z,104152.16
2023-02-06T19:46:47.338Z,104153.00
2023-02-06T19:49:52.305Z,104150.34
2023-02-06T19:52:55.304Z,104155.69
2023-02-06T19:55:58.204Z,104149.47
2023-02-06T19:59:06.005Z,104137.88
2023-02-06T20:02:17.467Z,104150.34
2023-02-06T20:05:26.204Z,104170.78
2023-02-06T20:08:29.270Z,104159.22
2023-02-06T20:11:33.879Z,104152.13
2023-02-06T20:14:36.750Z,104153.00
2023-02-06T20:17:40.970Z,104136.13
2023-02-06T20:20:43.823Z,104143.22
2023-02-06T20:23:46.734Z,104133.47
2023-02-06T20:26:52.249Z,104141.47
2023-02-06T20:29:55.871Z,104139.69
2023-02-06T20:33:00.612Z,104139.69
2023-02-06T20:36:06.527Z,104137.03
2023-02-06T20:39:11.807Z,104143.22
2023-02-06T20:42:15.384Z,104147.66
2023-02-06T20:45:18.364Z,104148.56
2023-02-06T20:48:22.565Z,104147.66
2023-02-06T20:51:26.105Z,104161.91
2023-02-06T20:54:30.747Z,104169.91
2023-02-06T20:57:35.429Z,104176.13
2023-02-06T21:00:38.504Z,104181.47
2023-02-06T21:03:43.025Z,104185.03
2023-02-06T21:06:47.852Z,104180.59
2023-02-06T21:09:50.901Z,104190.34
2023-02-06T21:12:53.814Z,104177.91
2023-02-06T21:15:58.528Z,104169.03
2023-02-06T21:19:03.285Z,104170.78
2023-02-06T21:22:06.259Z,104175.25
2023-02-06T21:25:09.215Z,104161.03
2023-02-06T21:28:12.222Z,104173.47
2023-02-06T21:31:18.240Z,104177.03
2023-02-06T21:34:25.821Z,104175.25
2023-02-06T21:37:28.657Z,104174.34
2023-02-06T21:40:31.606Z,104172.59
2023-02-06T21:43:35.106Z,104172.59
2023-02-06T21:46:38.893Z,104166.34
2023-02-06T21:49:43.152Z,104167.25
2023-02-06T21:52:46.093Z,104166.34
2023-02-06T21:55:49.368Z,104161.91
2023-02-06T21:58:53.104Z,104177.91
2023-02-06T22:01:56.019Z,104161.03
2023-02-06T22:05:00.379Z,104161.91
2023-02-06T22:08:03.319Z,104159.25
2023-02-06T22:11:13.033Z,104161.91
2023-02-06T22:14:19.041Z,104162.78
2023-02-06T22:17:21.948Z,104167.25
2023-02-06T22:20:26.404Z,104166.34
2023-02-06T22:23:29.207Z,104170.81
2023-02-06T22:26:33.115Z,104169.91
2023-02-06T22:29:36.085Z,104175.25
2023-02-06T22:32:40.104Z,104183.28
2023-02-06T22:35:44.313Z,104178.81
2023-02-06T22:38:48.362Z,104176.16
2023-02-06T22:41:51.776Z,104180.56
2023-02-06T22:44:54.679Z,104193.94
2023-02-06T22:47:57.974Z,104191.28
2023-02-06T22:51:06.818Z,104202.81
2023-02-06T22:54:10.405Z,104206.38
2023-02-06T22:57:13.252Z,104201.91
2023-02-06T23:00:18.479Z,104201.91
2023-02-06T23:03:21.396Z,104201.91
2023-02-06T23:06:26.873Z,104206.34
2023-02-06T23:09:32.986Z,104207.25
2023-02-06T23:12:35.955Z,104204.59
2023-02-06T23:15:41.022Z,104209.03
2023-02-06T23:18:44.031Z,104206.34
2023-02-06T23:21:51.178Z,104216.16
2023-02-06T23:24:54.048Z,104224.13
2023-02-06T23:27:56.930Z,104225.03
2023-02-06T23:30:59.763Z,104228.59
2023-02-06T23:34:02.771Z,104222.34
2023-02-06T23:37:06.976Z,104225.91
2023-02-06T23:40:11.394Z,104217.91
2023-02-06T23:43:15.364Z,104225.03
2023-02-06T23:46:20.016Z,104221.50
2023-02-06T23:49:22.928Z,104237.50
2023-02-06T23:52:28.551Z,104231.25
2023-02-06T23:55:31.371Z,104237.50
2023-02-06T23:58:34.271Z,104235.69
